createdAt,value
2023-04-02T00:03:11.581Z,88.71
2023-04-02T00:08:41.287Z,88.54
2023-04-02T00:13:49.145Z,88.46
2023-04-02T00:19:02.969Z,88.51
2023-04-02T00:24:20.554Z,88.47
2023-04-02T00:29:23.704Z,88.73
2023-04-02T00:34:36.641Z,89.02
2023-04-02T00:39:43.335Z,89.21
2023-04-02T00:44:49.559Z,89.26
2023-04-02T00:50:22.318Z,89.32
2023-04-02T00:55:36.356Z,89.24
2023-04-02T01:00:40.813Z,89.32
2023-04-02T01:05:50.587Z,89.52
2023-04-02T01:11:33.651Z,89.70
2023-04-02T01:17:20.860Z,89.87
2023-04-02T01:23:21.749Z,90.13
2023-04-02T01:29:05.684Z,90.11
2023-04-02T01:34:15.597Z,90.10
2023-04-02T01:39:40.769Z,89.99
2023-04-02T01:44:52.583Z,89.99
2023-04-02T01:50:14.904Z,90.07
2023-04-02T01:55:43.028Z,90.15
2023-04-02T02:01:12.912Z,90.20
2023-04-02T02:06:19.110Z,90.07
2023-04-02T02:11:28.668Z,89.90
2023-04-02T02:16:34.081Z,89.84
2023-04-02T02:21:58.574Z,89.60
2023-04-02T02:27:22.969Z,89.69
2023-04-02T02:32:32.851Z,89.79
2023-04-02T02:37:42.608Z,89.90
2023-04-02T02:42:56.904Z,89.88
2023-04-02T02:48:03.732Z,89.83
2023-04-02T02:53:22.879Z,89.77
2023-04-02T02:58:32.052Z,89.68
2023-04-02T03:03:35.871Z,89.56
2023-04-02T03:08:56.017Z,89.61
2023-04-02T03:14:21.771Z,89.85
2023-04-02T03:19:35.968Z,89.70
2023-04-02T03:24:53.193Z,89.72
2023-04-02T03:30:26.937Z,89.72
2023-04-02T03:36:02.686Z,89.64
2023-04-02T03:41:21.299Z,89.53
2023-04-02T03:46:31.581Z,89.57
2023-04-02T03:51:48.350Z,89.57
2023-04-02T03:56:53.909Z,89.64
2023-04-02T04:02:27.090Z,89.68
2023-04-02T04:07:38.046Z,89.81
2023-04-02T04:12:47.510Z,89.86
2023-04-02T04:18:22.005Z,89.94
2023-04-02T04:23:37.397Z,90.26
2023-04-02T04:29:32.214Z,90.43
2023-04-02T04:34:51.702Z,90.65
2023-04-02T04:39:59.318Z,90.82
2023-04-02T04:45:33.899Z,90.96
2023-04-02T04:50:54.469Z,90.94
2023-04-02T04:56:12.485Z,90.86
2023-04-02T05:01:35.459Z,90.68
2023-04-02T05:07:07.588Z,90.56
2023-04-02T05:12:32.007Z,90.56
2023-04-02T05:17:57.181Z,90.49
2023-04-02T05:23:14.159Z,90.43
2023-04-02T05:28:33.946Z,90.29
2023-04-02T05:33:39.063Z,90.14
2023-04-02T05:38:47.799Z,90.04
2023-04-02T05:44:06.333Z,90.15
2023-04-02T05:49:40.849Z,90.26
2023-04-02T05:54:55.215Z,90.19
2023-04-02T06:00:07.548Z,90.07
2023-04-02T06:05:20.421Z,89.93
2023-04-02T06:10:34.130Z,89.68
2023-04-02T06:15:39.006Z,89.61
2023-04-02T06:20:42.183Z,89.69
2023-04-02T06:25:53.347Z,89.82
2023-04-02T06:31:08.080Z,90.00
2023-04-02T06:36:12.685Z,89.93
2023-04-02T06:41:22.967Z,89.76
2023-04-02T06:46:45.851Z,89.77
2023-04-02T06:51:53.428Z,89.82
2023-04-02T06:56:56.917Z,89.81
2023-04-02T07:02:34.126Z,89.57
2023-04-02T07:07:37.391Z,89.54
2023-04-02T07:12:40.602Z,89.31
2023-04-02T07:17:44.133Z,88.94
2023-04-02T07:22:47.219Z,89.01
2023-04-02T07:27:52.391Z,88.81
2023-04-02T07:32:56.000Z,88.65
2023-04-02T07:37:59.203Z,88.81
2023-04-02T07:43:02.613Z,88.79
2023-04-02T07:48:12.470Z,88.56
2023-04-02T07:53:38.084Z,88.65
2023-04-02T07:58:41.145Z,88.68
2023-04-02T08:03:45.109Z,88.62
2023-04-02T08:08:48.578Z,88.14
2023-04-02T08:13:52.486Z,88.37
2023-04-02T08:18:56.005Z,87.81
2023-04-02T08:23:59.313Z,87.84
2023-04-02T08:29:03.046Z,87.82
2023-04-02T08:34:06.295Z,87.73
2023-04-02T08:39:12.028Z,87.47
2023-04-02T08:44:45.219Z,87.61
2023-04-02T08:49:56.724Z,87.68
2023-04-02T08:55:02.891Z,87.54
2023-04-02T09:00:37.956Z,87.36
2023-04-02T09:05:44.261Z,87.25
2023-04-02T09:11:32.910Z,87.11
2023-04-02T09:16:56.396Z,87.01
2023-04-02T09:22:29.627Z,87.11
2023-04-02T09:27:36.807Z,86.85
2023-04-02T09:32:51.737Z,86.67
2023-04-02T09:38:10.259Z,86.75
2023-04-02T09:43:16.489Z,86.24
2023-04-02T09:48:34.296Z,85.89
2023-04-02T09:53:42.620Z,85.75
2023-04-02T09:59:04.569Z,85.31
2023-04-02T10:04:45.021Z,85.50
2023-04-02T10:10:35.199Z,84.73
2023-04-02T10:15:53.324Z,84.86
2023-04-02T10:21:01.523Z,83.86
2023-04-02T10:26:24.327Z,83.18
2023-04-02T10:31:47.707Z,82.90
2023-04-02T10:37:12.002Z,83.12
2023-04-02T10:42:39.275Z,82.25
2023-04-02T10:48:47.415Z,82.12
2023-04-02T10:54:28.238Z,81.02
2023-04-02T10:59:38.881Z,80.90
2023-04-02T11:04:47.153Z,80.49
2023-04-02T11:09:55.832Z,79.17
2023-04-02T11:15:00.881Z,78.41
2023-04-02T11:20:57.358Z,77.99
2023-04-02T11:26:33.896Z,75.93
2023-04-02T11:31:37.168Z,75.38
2023-04-02T11:36:55.102Z,75.42
2023-04-02T11:42:03.031Z,74.58
2023-04-02T11:47:24.614Z,72.41
2023-04-02T11:52:45.692Z,72.23
2023-04-02T11:58:08.565Z,72.18
2023-04-02T12:03:49.564Z,71.32
2023-04-02T12:09:16.929Z,69.68
2023-04-02T12:14:38.280Z,69.13
2023-04-02T12:19:46.340Z,67.00
2023-04-02T12:24:50.927Z,66.33
2023-04-02T12:30:13.782Z,66.02
2023-04-02T12:35:36.662Z,66.82
2023-04-02T12:40:39.876Z,67.18
2023-04-02T12:45:43.700Z,66.39
2023-04-02T12:50:48.313Z,65.68
2023-04-02T12:55:53.819Z,64.51
2023-04-02T13:01:13.122Z,62.54
2023-04-02T13:06:27.234Z,61.92
2023-04-02T13:11:41.998Z,61.44
2023-04-02T13:16:45.347Z,61.83
2023-04-02T13:21:49.168Z,62.61
2023-04-02T13:26:57.713Z,61.69
2023-04-02T13:32:07.965Z,61.21
2023-04-02T13:37:13.428Z,61.36
2023-04-02T13:42:18.590Z,60.94
2023-04-02T13:47:22.010Z,60.65
2023-04-02T13:52:25.239Z,60.64
2023-04-02T13:57:28.550Z,59.56
2023-04-02T14:02:33.891Z,59.47
2023-04-02T14:08:11.404Z,59.44
2023-04-02T14:13:28.949Z,57.29
2023-04-02T14:19:06.578Z,57.88
2023-04-02T14:24:18.916Z,57.71
2023-04-02T14:29:44.311Z,57.60
2023-04-02T14:35:28.312Z,56.07
2023-04-02T14:41:04.763Z,57.33
2023-04-02T14:46:12.607Z,56.15
2023-04-02T14:51:55.115Z,55.52
2023-04-02T14:57:28.152Z,54.15
2023-04-02T15:02:57.529Z,53.67
2023-04-02T15:08:27.472Z,53.03
2023-04-02T15:13:43.492Z,52.26
2023-04-02T15:18:52.639Z,52.09
2023-04-02T15:24:25.232Z,51.88
2023-04-02T15:30:02.346Z,52.50
2023-04-02T15:35:45.801Z,51.86
2023-04-02T15:41:00.623Z,51.08
2023-04-02T15:46:42.494Z,52.33
2023-04-02T15:51:55.723Z,49.40
2023-04-02T15:57:11.303Z,49.52
2023-04-02T16:02:29.966Z,49.38
2023-04-02T16:07:55.023Z,49.56
2023-04-02T16:12:58.157Z,49.97
2023-04-02T16:18:39.225Z,49.26
2023-04-02T16:23:43.567Z,49.62
2023-04-02T16:29:09.046Z,47.28
2023-04-02T16:34:26.229Z,45.53
2023-04-02T16:40:07.240Z,43.62
2023-04-02T16:45:42.180Z,43.85
2023-04-02T16:51:01.570Z,43.12
2023-04-02T16:56:42.260Z,42.99
2023-04-02T17:02:50.222Z,43.12
2023-04-02T17:08:30.349Z,44.14
2023-04-02T17:13:41.448Z,43.92
2023-04-02T17:18:49.550Z,45.16
2023-04-02T17:24:02.490Z,46.13
2023-04-02T17:29:21.798Z,47.22
2023-04-02T17:34:26.017Z,49.67
2023-04-02T17:39:43.458Z,52.31
2023-04-02T17:44:57.373Z,53.80
2023-04-02T17:50:12.626Z,54.75
2023-04-02T17:55:46.447Z,55.30
2023-04-02T18:01:27.087Z,55.72
2023-04-02T18:07:07.322Z,55.97
2023-04-02T18:12:27.306Z,56.51
2023-04-02T18:17:53.651Z,57.40
2023-04-02T18:23:19.958Z,58.39
2023-04-02T18:29:04.093Z,59.00
2023-04-02T18:34:19.888Z,59.51
2023-04-02T18:39:46.022Z,60.08
2023-04-02T18:45:48.144Z,60.51
2023-04-02T18:50:54.109Z,60.94
2023-04-02T18:56:08.186Z,61.51
2023-04-02T19:01:20.025Z,61.97
2023-04-02T19:06:35.867Z,62.45
2023-04-02T19:11:39.121Z,62.92
2023-04-02T19:17:19.458Z,63.53
2023-04-02T19:22:43.364Z,64.18
2023-04-02T19:28:26.579Z,64.63
2023-04-02T19:34:20.093Z,65.15
2023-04-02T19:39:48.691Z,65.81
2023-04-02T19:44:54.977Z,66.39
2023-04-02T19:49:58.417Z,66.75
2023-04-02T19:55:01.592Z,67.06
2023-04-02T20:00:06.737Z,67.49
2023-04-02T20:05:10.822Z,67.88
2023-04-02T20:10:14.290Z,67.82
2023-04-02T20:15:17.524Z,68.08
2023-04-02T20:20:20.924Z,68.46
2023-04-02T20:25:24.155Z,68.60
2023-04-02T20:30:27.453Z,68.81
2023-04-02T20:35:34.699Z,69.08
2023-04-02T20:40:43.827Z,69.01
2023-04-02T20:45:58.152Z,69.01
2023-04-02T20:51:05.170Z,69.16
2023-04-02T20:56:17.063Z,69.34
2023-04-02T21:01:26.391Z,69.39
2023-04-02T21:06:34.130Z,69.86
2023-04-02T21:11:37.560Z,70.11
2023-04-02T21:16:42.101Z,70.18
2023-04-02T21:21:45.195Z,70.25
2023-04-02T21:26:48.307Z,70.11
2023-04-02T21:31:52.743Z,69.79
2023-04-02T21:36:56.804Z,69.78
2023-04-02T21:42:00.288Z,70.08
2023-04-02T21:47:03.706Z,70.66
2023-04-02T21:52:07.004Z,71.24
2023-04-02T21:57:10.220Z,71.61
2023-04-02T22:02:13.536Z,71.61
2023-04-02T22:07:16.644Z,71.75
2023-04-02T22:12:19.739Z,71.75
2023-04-02T22:17:22.877Z,71.69
2023-04-02T22:22:26.100Z,71.72
2023-04-02T22:27:29.766Z,71.74
2023-04-02T22:32:32.899Z,71.82
2023-04-02T22:37:36.291Z,71.44
2023-04-02T22:42:39.420Z,70.72
2023-04-02T22:47:42.588Z,70.21
2023-04-02T22:52:46.660Z,70.01
2023-04-02T22:57:49.730Z,69.67
2023-04-02T23:02:52.845Z,69.33
2023-04-02T23:07:56.461Z,69.24
2023-04-02T23:12:59.468Z,69.00
2023-04-02T23:18:02.629Z,68.75
2023-04-02T23:23:05.681Z,68.83
2023-04-02T23:28:12.549Z,68.61
2023-04-02T23:33:15.681Z,68.39
2023-04-02T23:38:18.788Z,68.32
2023-04-02T23:43:21.889Z,68.41
2023-04-02T23:48:24.907Z,68.28
2023-04-02T23:53:28.109Z,67.86
2023-04-02T23:58:31.516Z,67.79
